sensor_id;sensor_type;location;lat;lon;timestamp;pressure;altitude;pressure_sealevel;temperature;humidity
46690;BME280;32423;45.398;10.874;2023-02-03T00:01:12;101610.84;;;6.58;60.05
46690;BME280;32423;45.398;10.874;2023-02-03T00:04:05;101605.44;;;6.48;61.33
46690;BME280;32423;45.398;10.874;2023-02-03T00:06:54;101604.63;;;6.53;61.52
46690;BME280;32423;45.398;10.874;2023-02-03T00:09:46;101615.19;;;6.54;61.58
46690;BME280;32423;45.398;10.874;2023-02-03T00:12:38;101626.50;;;6.56;61.56
46690;BME280;32423;45.398;10.874;2023-02-03T00:15:27;101626.50;;;6.51;62.35
46690;BME280;32423;45.398;10.874;2023-02-03T00:18:19;101640.63;;;6.73;62.36
46690;BME280;32423;45.398;10.874;2023-02-03T00:21:11;101639.28;;;6.86;61.78
46690;BME280;32423;45.398;10.874;2023-02-03T00:24:03;101646.59;;;6.80;61.59
46690;BME280;32423;45.398;10.874;2023-02-03T00:26:55;101641.97;;;6.76;62.39
46690;BME280;32423;45.398;10.874;2023-02-03T00:29:47;101639.28;;;6.91;62.36
46690;BME280;32423;45.398;10.874;2023-02-03T00:32:39;101637.38;;;6.71;62.38
46690;BME280;32423;45.398;10.874;2023-02-03T00:35:28;101636.53;;;6.61;62.06
46690;BME280;32423;45.398;10.874;2023-02-03T00:38:20;101633.84;;;6.66;61.61
46690;BME280;32423;45.398;10.874;2023-02-03T00:41:12;101632.22;;;6.60;62.12
46690;BME280;32423;45.398;10.874;2023-02-03T00:44:02;101645.19;;;6.68;61.91
46690;BME280;32423;45.398;10.874;2023-02-03T00:46:54;101634.06;;;6.49;61.27
46690;BME280;32423;45.398;10.874;2023-02-03T00:49:46;101637.09;;;6.63;61.86
46690;BME280;32423;45.398;10.874;2023-02-03T00:52:38;101639.78;;;6.58;61.42
46690;BME280;32423;45.398;10.874;2023-02-03T00:55:30;101628.63;;;6.34;61.33
46690;BME280;32423;45.398;10.874;2023-02-03T00:58:22;101644.28;;;6.37;61.02
46690;BME280;32423;45.398;10.874;2023-02-03T01:01:14;101650.94;;;6.09;61.01
46690;BME280;32423;45.398;10.874;2023-02-03T01:04:06;101642.31;;;6.17;61.99
46690;BME280;32423;45.398;10.874;2023-02-03T01:06:56;101656.13;;;6.26;61.34
46690;BME280;32423;45.398;10.874;2023-02-03T01:09:48;101657.94;;;6.15;62.42
46690;BME280;32423;45.398;10.874;2023-02-03T01:12:40;101655.03;;;6.27;62.67
46690;BME280;32423;45.398;10.874;2023-02-03T01:15:31;101672.28;;;6.16;62.44
46690;BME280;32423;45.398;10.874;2023-02-03T01:18:21;101667.84;;;5.99;61.51
46690;BME280;32423;45.398;10.874;2023-02-03T01:21:13;101656.91;;;5.79;61.06
46690;BME280;32423;45.398;10.874;2023-02-03T01:24:05;101654.41;;;5.68;60.96
46690;BME280;32423;45.398;10.874;2023-02-03T01:26:58;101662.81;;;5.76;62.81
46690;BME280;32423;45.398;10.874;2023-02-03T01:29:50;101651.75;;;5.73;60.46
46690;BME280;32423;45.398;10.874;2023-02-03T01:32:42;101651.66;;;5.26;62.17
46690;BME280;32423;45.398;10.874;2023-02-03T01:35:34;101658.88;;;4.66;64.93
46690;BME280;32423;45.398;10.874;2023-02-03T01:38:26;101670.28;;;5.00;64.03
46690;BME280;32423;45.398;10.874;2023-02-03T01:41:18;101660.94;;;5.40;62.94
46690;BME280;32423;45.398;10.874;2023-02-03T01:47:25;101666.69;;;4.68;64.17
46690;BME280;32423;45.398;10.874;2023-02-03T01:53:11;101658.50;;;4.14;66.05
46690;BME280;32423;45.398;10.874;2023-02-03T01:56:03;101657.94;;;4.12;66.09
46690;BME280;32423;45.398;10.874;2023-02-03T01:58:56;101660.78;;;3.84;68.74
46690;BME280;32423;45.398;10.874;2023-02-03T02:01:49;101651.69;;;3.52;70.95
46690;BME280;32423;45.398;10.874;2023-02-03T02:04:51;101645.31;;;3.74;71.58
46690;BME280;32423;45.398;10.874;2023-02-03T02:07:46;101642.81;;;4.06;69.50
46690;BME280;32423;45.398;10.874;2023-02-03T02:10:38;101633.69;;;3.52;70.38
46690;BME280;32423;45.398;10.874;2023-02-03T02:13:30;101640.31;;;3.83;70.76
46690;BME280;32423;45.398;10.874;2023-02-03T02:19:50;101643.28;;;4.03;69.78
46690;BME280;32423;45.398;10.874;2023-02-03T02:25:55;101646.66;;;3.38;71.47
46690;BME280;32423;45.398;10.874;2023-02-03T02:32:05;101656.47;;;3.83;71.22
46690;BME280;32423;45.398;10.874;2023-02-03T02:35:41;101662.28;;;3.25;72.38
46690;BME280;32423;45.398;10.874;2023-02-03T02:41:17;101677.00;;;3.89;70.10
46690;BME280;32423;45.398;10.874;2023-02-03T02:47:00;101669.34;;;4.63;68.12
46690;BME280;32423;45.398;10.874;2023-02-03T02:50:00;101678.09;;;4.75;68.09
46690;BME280;32423;45.398;10.874;2023-02-03T02:52:54;101665.81;;;4.84;67.37
46690;BME280;32423;45.398;10.874;2023-02-03T02:55:47;101662.16;;;4.95;67.20
46690;BME280;32423;45.398;10.874;2023-02-03T02:58:39;101659.50;;;5.00;67.08
46690;BME280;32423;45.398;10.874;2023-02-03T03:01:35;101665.50;;;4.81;66.40
46690;BME280;32423;45.398;10.874;2023-02-03T03:04:24;101648.06;;;4.88;67.16
46690;BME280;32423;45.398;10.874;2023-02-03T03:07:19;101651.41;;;5.00;65.54
46690;BME280;32423;45.398;10.874;2023-02-03T03:10:13;101653.19;;;4.63;67.18
46690;BME280;32423;45.398;10.874;2023-02-03T03:13:07;101652.94;;;4.43;67.64
46690;BME280;32423;45.398;10.874;2023-02-03T03:16:01;101667.78;;;4.45;67.30
46690;BME280;32423;45.398;10.874;2023-02-03T03:18:55;101660.00;;;4.70;66.79
46690;BME280;32423;45.398;10.874;2023-02-03T03:21:53;101672.66;;;4.70;68.29
46690;BME280;32423;45.398;10.874;2023-02-03T03:24:49;101670.84;;;4.76;68.45
46690;BME280;32423;45.398;10.874;2023-02-03T03:27:43;101675.69;;;5.00;67.95
46690;BME280;32423;45.398;10.874;2023-02-03T03:30:37;101691.31;;;5.03;67.10
46690;BME280;32423;45.398;10.874;2023-02-03T03:33:27;101693.38;;;4.91;65.98
46690;BME280;32423;45.398;10.874;2023-02-03T03:39:49;101696.66;;;4.71;64.31
46690;BME280;32423;45.398;10.874;2023-02-03T03:42:44;101711.75;;;3.74;67.59
46690;BME280;32423;45.398;10.874;2023-02-03T03:45:43;101710.84;;;3.52;68.89
46690;BME280;32423;45.398;10.874;2023-02-03T03:48:44;101717.81;;;3.19;70.80
46690;BME280;32423;45.398;10.874;2023-02-03T03:51:53;101719.94;;;3.51;70.64
46690;BME280;32423;45.398;10.874;2023-02-03T03:54:41;101717.03;;;3.69;70.21
46690;BME280;32423;45.398;10.874;2023-02-03T04:00:27;101724.09;;;3.25;72.06
46690;BME280;32423;45.398;10.874;2023-02-03T04:03:37;101722.50;;;3.12;73.22
46690;BME280;32423;45.398;10.874;2023-02-03T04:06:25;101724.63;;;3.10;73.06
46690;BME280;32423;45.398;10.874;2023-02-03T04:09:14;101721.66;;;3.23;71.89
46690;BME280;32423;45.398;10.874;2023-02-03T04:12:08;101727.38;;;3.43;71.24
46690;BME280;32423;45.398;10.874;2023-02-03T04:15:04;101723.88;;;3.43;71.43
46690;BME280;32423;45.398;10.874;2023-02-03T04:17:53;101738.56;;;3.69;70.74
46690;BME280;32423;45.398;10.874;2023-02-03T04:20:45;101733.81;;;3.42;71.34
46690;BME280;32423;45.398;10.874;2023-02-03T04:23:37;101729.97;;;3.38;71.20
46690;BME280;32423;45.398;10.874;2023-02-03T04:26:29;101730.88;;;3.61;70.57
46690;BME280;32423;45.398;10.874;2023-02-03T04:29:21;101724.63;;;3.88;69.89
46690;BME280;32423;45.398;10.874;2023-02-03T04:32:13;101719.53;;;3.92;69.52
46690;BME280;32423;45.398;10.874;2023-02-03T04:35:04;101714.81;;;4.16;69.19
46690;BME280;32423;45.398;10.874;2023-02-03T04:37:57;101702.03;;;4.28;68.58
46690;BME280;32423;45.398;10.874;2023-02-03T04:40:49;101687.50;;;4.29;68.76
46690;BME280;32423;45.398;10.874;2023-02-03T04:43:40;101672.03;;;4.19;66.52
46690;BME280;32423;45.398;10.874;2023-02-03T04:46:32;101664.81;;;4.03;67.20
46690;BME280;32423;45.398;10.874;2023-02-03T04:49:22;101672.28;;;3.96;68.55
46690;BME280;32423;45.398;10.874;2023-02-03T04:52:13;101688.25;;;3.86;68.42
46690;BME280;32423;45.398;10.874;2023-02-03T04:55:05;101690.63;;;3.82;69.20
46690;BME280;32423;45.398;10.874;2023-02-03T04:57:58;101695.66;;;3.96;67.87
46690;BME280;32423;45.398;10.874;2023-02-03T05:00:50;101706.25;;;4.02;67.30
46690;BME280;32423;45.398;10.874;2023-02-03T05:03:39;101708.69;;;4.04;68.55
46690;BME280;32423;45.398;10.874;2023-02-03T05:06:32;101710.72;;;3.97;68.42
46690;BME280;32423;45.398;10.874;2023-02-03T05:09:23;101710.75;;;3.63;69.81
46690;BME280;32423;45.398;10.874;2023-02-03T05:12:15;101724.53;;;4.00;69.04
46690;BME280;32423;45.398;10.874;2023-02-03T05:15:07;101718.50;;;3.60;68.53
46690;BME280;32423;45.398;10.874;2023-02-03T05:17:59;101717.09;;;3.24;70.75
46690;BME280;32423;45.398;10.874;2023-02-03T05:20:51;101706.34;;;2.95;70.64
46690;BME280;32423;45.398;10.874;2023-02-03T05:23:43;101704.56;;;3.29;70.13
46690;BME280;32423;45.398;10.874;2023-02-03T05:26:35;101704.47;;;3.24;69.63
46690;BME280;32423;45.398;10.874;2023-02-03T05:29:27;101706.81;;;3.21;70.54
46690;BME280;32423;45.398;10.874;2023-02-03T05:32:19;101705.44;;;3.18;70.75
46690;BME280;32423;45.398;10.874;2023-02-03T05:35:11;101705.00;;;3.10;72.26
46690;BME280;32423;45.398;10.874;2023-02-03T05:38:02;101715.81;;;3.60;70.66
46690;BME280;32423;45.398;10.874;2023-02-03T05:40:54;101721.44;;;3.58;70.64
46690;BME280;32423;45.398;10.874;2023-02-03T05:44:00;101725.34;;;4.01;69.59
46690;BME280;32423;45.398;10.874;2023-02-03T05:46:52;101715.31;;;3.96;69.41
46690;BME280;32423;45.398;10.874;2023-02-03T05:49:44;101727.72;;;3.64;70.10
46690;BME280;32423;45.398;10.874;2023-02-03T05:52:36;101733.81;;;4.09;68.35
46690;BME280;32423;45.398;10.874;2023-02-03T05:55:28;101723.94;;;3.98;67.74
46690;BME280;32423;45.398;10.874;2023-02-03T05:58:18;101728.78;;;3.63;69.01
46690;BME280;32423;45.398;10.874;2023-02-03T06:01:10;101744.41;;;3.49;68.31
46690;BME280;32423;45.398;10.874;2023-02-03T06:03:59;101747.44;;;2.68;72.78
46690;BME280;32423;45.398;10.874;2023-02-03T06:06:49;101739.09;;;3.37;70.36
46690;BME280;32423;45.398;10.874;2023-02-03T06:09:41;101738.88;;;3.72;68.52
46690;BME280;32423;45.398;10.874;2023-02-03T06:12:33;101743.63;;;3.65;69.68
46690;BME280;32423;45.398;10.874;2023-02-03T06:15:25;101738.72;;;3.62;67.93
46690;BME280;32423;45.398;10.874;2023-02-03T06:18:17;101730.03;;;3.27;68.46
46690;BME280;32423;45.398;10.874;2023-02-03T06:21:10;101724.97;;;3.14;68.31
46690;BME280;32423;45.398;10.874;2023-02-03T06:24:02;101716.69;;;2.75;69.38
46690;BME280;32423;45.398;10.874;2023-02-03T06:26:54;101730.84;;;2.71;69.67
46690;BME280;32423;45.398;10.874;2023-02-03T06:29:46;101744.66;;;2.91;68.68
46690;BME280;32423;45.398;10.874;2023-02-03T06:32:39;101756.38;;;2.33;69.98
46690;BME280;32423;45.398;10.874;2023-02-03T06:35:31;101769.56;;;2.86;69.34
46690;BME280;32423;45.398;10.874;2023-02-03T06:38:23;101779.03;;;2.89;69.59
46690;BME280;32423;45.398;10.874;2023-02-03T06:41:15;101774.53;;;3.06;69.35
46690;BME280;32423;45.398;10.874;2023-02-03T06:44:07;101756.94;;;3.43;68.94
46690;BME280;32423;45.398;10.874;2023-02-03T06:46:59;101771.97;;;3.73;68.26
46690;BME280;32423;45.398;10.874;2023-02-03T06:49:51;101781.59;;;4.02;67.66
46690;BME280;32423;45.398;10.874;2023-02-03T06:52:40;101788.38;;;3.88;68.47
46690;BME280;32423;45.398;10.874;2023-02-03T06:55:32;101812.91;;;4.42;66.63
46690;BME280;32423;45.398;10.874;2023-02-03T06:58:22;101836.72;;;4.50;65.44
46690;BME280;32423;45.398;10.874;2023-02-03T07:01:14;101834.53;;;4.47;64.70
46690;BME280;32423;45.398;10.874;2023-02-03T07:04:07;101827.78;;;4.66;63.86
46690;BME280;32423;45.398;10.874;2023-02-03T07:06:59;101816.94;;;4.61;65.80
46690;BME280;32423;45.398;10.874;2023-02-03T07:09:51;101821.59;;;4.49;66.84
46690;BME280;32423;45.398;10.874;2023-02-03T07:12:41;101842.75;;;4.23;68.50
46690;BME280;32423;45.398;10.874;2023-02-03T07:15:33;101841.03;;;4.51;66.58
46690;BME280;32423;45.398;10.874;2023-02-03T07:18:25;101847.00;;;4.19;67.24
46690;BME280;32423;45.398;10.874;2023-02-03T07:21:16;101842.44;;;4.37;67.76
46690;BME280;32423;45.398;10.874;2023-02-03T07:24:08;101828.19;;;4.58;67.92
46690;BME280;32423;45.398;10.874;2023-02-03T07:27:00;101830.03;;;4.74;68.61
46690;BME280;32423;45.398;10.874;2023-02-03T07:29:52;101841.66;;;4.96;68.58
46690;BME280;32423;45.398;10.874;2023-02-03T07:32:45;101829.38;;;5.05;67.77
46690;BME280;32423;45.398;10.874;2023-02-03T07:35:38;101853.53;;;5.17;68.69
46690;BME280;32423;45.398;10.874;2023-02-03T07:38:29;101851.06;;;5.15;68.94
46690;BME280;32423;45.398;10.874;2023-02-03T07:41:21;101862.97;;;5.20;69.53
46690;BME280;32423;45.398;10.874;2023-02-03T07:44:11;101866.13;;;5.11;69.89
46690;BME280;32423;45.398;10.874;2023-02-03T07:47:00;101861.91;;;5.21;69.69
46690;BME280;32423;45.398;10.874;2023-02-03T07:49:52;101868.53;;;4.91;72.24
46690;BME280;32423;45.398;10.874;2023-02-03T07:52:44;101869.16;;;4.98;72.51
46690;BME280;32423;45.398;10.874;2023-02-03T07:55:36;101869.75;;;4.62;75.05
46690;BME280;32423;45.398;10.874;2023-02-03T07:58:28;101871.31;;;4.96;74.90
46690;BME280;32423;45.398;10.874;2023-02-03T08:01:18;101854.31;;;4.96;75.38
46690;BME280;32423;45.398;10.874;2023-02-03T08:04:07;101858.44;;;4.82;76.96
46690;BME280;32423;45.398;10.874;2023-02-03T08:06:57;101867.00;;;4.79;76.02
46690;BME280;32423;45.398;10.874;2023-02-03T08:09:49;101857.91;;;5.23;75.85
46690;BME280;32423;45.398;10.874;2023-02-03T08:12:38;101856.56;;;5.47;74.47
46690;BME280;32423;45.398;10.874;2023-02-03T08:15:28;101851.94;;;5.70;73.82
46690;BME280;32423;45.398;10.874;2023-02-03T08:18:20;101852.22;;;5.68;73.94
46690;BME280;32423;45.398;10.874;2023-02-03T08:21:12;101842.47;;;5.67;73.79
46690;BME280;32423;45.398;10.874;2023-02-03T08:24:04;101846.66;;;5.31;75.14
46690;BME280;32423;45.398;10.874;2023-02-03T08:26:56;101858.91;;;4.95;76.70
46690;BME280;32423;45.398;10.874;2023-02-03T08:29:48;101854.88;;;4.98;77.83
46690;BME280;32423;45.398;10.874;2023-02-03T08:32:40;101856.81;;;5.24;77.53
46690;BME280;32423;45.398;10.874;2023-02-03T08:35:32;101853.56;;;5.71;74.87
46690;BME280;32423;45.398;10.874;2023-02-03T08:38:24;101853.50;;;5.87;74.34
46690;BME280;32423;45.398;10.874;2023-02-03T08:41:16;101836.00;;;5.68;74.54
46690;BME280;32423;45.398;10.874;2023-02-03T08:44:03;101834.78;;;6.08;72.73
46690;BME280;32423;45.398;10.874;2023-02-03T08:46:55;101831.22;;;5.75;73.65
46690;BME280;32423;45.398;10.874;2023-02-03T08:49:46;101832.28;;;5.74;72.03
46690;BME280;32423;45.398;10.874;2023-02-03T08:52:38;101843.25;;;5.89;72.78
46690;BME280;32423;45.398;10.874;2023-02-03T08:55:29;101840.13;;;5.76;73.39
46690;BME280;32423;45.398;10.874;2023-02-03T08:58:21;101849.31;;;6.01;73.75
46690;BME280;32423;45.398;10.874;2023-02-03T09:01:12;101846.88;;;6.37;72.35
46690;BME280;32423;45.398;10.874;2023-02-03T09:04:04;101852.84;;;6.39;72.57
46690;BME280;32423;45.398;10.874;2023-02-03T09:06:56;101863.88;;;6.00;74.35
46690;BME280;32423;45.398;10.874;2023-02-03T09:09:48;101860.66;;;6.04;72.50
46690;BME280;32423;45.398;10.874;2023-02-03T09:12:40;101869.84;;;6.03;74.72
46690;BME280;32423;45.398;10.874;2023-02-03T09:15:32;101851.38;;;6.63;71.79
46690;BME280;32423;45.398;10.874;2023-02-03T09:18:21;101852.09;;;6.91;70.62
46690;BME280;32423;45.398;10.874;2023-02-03T09:21:13;101842.94;;;7.07;69.86
46690;BME280;32423;45.398;10.874;2023-02-03T09:24:05;101837.66;;;7.37;69.37
46690;BME280;32423;45.398;10.874;2023-02-03T09:26:57;101851.81;;;7.64;68.05
46690;BME280;32423;45.398;10.874;2023-02-03T09:29:44;101872.91;;;7.57;68.54
46690;BME280;32423;45.398;10.874;2023-02-03T09:32:33;101883.22;;;7.60;68.11
46690;BME280;32423;45.398;10.874;2023-02-03T09:35:25;101886.41;;;7.47;69.71
46690;BME280;32423;45.398;10.874;2023-02-03T09:38:17;101896.59;;;5.82;76.32
46690;BME280;32423;45.398;10.874;2023-02-03T09:47:09;101899.44;;;6.56;75.38
46690;BME280;32423;45.398;10.874;2023-02-03T09:50:02;101878.56;;;6.15;75.39
46690;BME280;32423;45.398;10.874;2023-02-03T09:52:55;101875.69;;;5.94;77.38
46690;BME280;32423;45.398;10.874;2023-02-03T09:55:49;101870.97;;;6.43;76.84
46690;BME280;32423;45.398;10.874;2023-02-03T09:58:41;101863.22;;;6.99;73.52
46690;BME280;32423;45.398;10.874;2023-02-03T10:01:40;101866.59;;;7.37;72.45
46690;BME280;32423;45.398;10.874;2023-02-03T10:04:33;101883.22;;;7.60;71.14
46690;BME280;32423;45.398;10.874;2023-02-03T10:07:49;101872.44;;;7.86;69.65
46690;BME280;32423;45.398;10.874;2023-02-03T10:13:30;101864.84;;;7.93;68.70
46690;BME280;32423;45.398;10.874;2023-02-03T10:16:30;101865.94;;;7.04;73.61
46690;BME280;32423;45.398;10.874;2023-02-03T10:19:32;101860.91;;;7.33;72.11
46690;BME280;32423;45.398;10.874;2023-02-03T10:22:28;101870.19;;;7.62;71.58
46690;BME280;32423;45.398;10.874;2023-02-03T10:25:21;101869.19;;;8.19;71.08
46690;BME280;32423;45.398;10.874;2023-02-03T10:28:23;101881.38;;;8.77;67.27
46690;BME280;32423;45.398;10.874;2023-02-03T10:31:19;101876.53;;;8.54;69.06
46690;BME280;32423;45.398;10.874;2023-02-03T10:34:15;101873.94;;;9.18;66.36
46690;BME280;32423;45.398;10.874;2023-02-03T10:37:32;101870.69;;;9.16;65.81
46690;BME280;32423;45.398;10.874;2023-02-03T10:40:27;101871.38;;;7.97;68.46
46690;BME280;32423;45.398;10.874;2023-02-03T10:43:22;101855.19;;;7.19;71.08
46690;BME280;32423;45.398;10.874;2023-02-03T10:46:31;101855.75;;;7.26;70.73
46690;BME280;32423;45.398;10.874;2023-02-03T10:49:28;101839.59;;;6.79;73.14
46690;BME280;32423;45.398;10.874;2023-02-03T10:52:33;101830.78;;;6.52;74.67
46690;BME280;32423;45.398;10.874;2023-02-03T10:55:32;101824.91;;;6.60;74.85
46690;BME280;32423;45.398;10.874;2023-02-03T10:58:28;101816.50;;;6.62;75.55
46690;BME280;32423;45.398;10.874;2023-02-03T11:01:21;101802.72;;;6.58;75.73
46690;BME280;32423;45.398;10.874;2023-02-03T11:04:43;101801.75;;;6.79;74.18
46690;BME280;32423;45.398;10.874;2023-02-03T11:07:35;101800.66;;;6.75;75.24
46690;BME280;32423;45.398;10.874;2023-02-03T11:10:36;101809.09;;;6.89;75.19
46690;BME280;32423;45.398;10.874;2023-02-03T11:13:26;101811.03;;;6.99;74.74
46690;BME280;32423;45.398;10.874;2023-02-03T11:16:20;101813.22;;;7.07;74.56
46690;BME280;32423;45.398;10.874;2023-02-03T11:19:19;101814.28;;;7.01;75.22
46690;BME280;32423;45.398;10.874;2023-02-03T11:22:20;101792.09;;;6.99;75.30
46690;BME280;32423;45.398;10.874;2023-02-03T11:25:20;101785.06;;;7.03;74.70
46690;BME280;32423;45.398;10.874;2023-02-03T11:28:18;101775.94;;;7.24;74.44
46690;BME280;32423;45.398;10.874;2023-02-03T11:31:18;101783.28;;;7.39;72.86
46690;BME280;32423;45.398;10.874;2023-02-03T11:34:18;101767.88;;;7.59;73.16
46690;BME280;32423;45.398;10.874;2023-02-03T11:37:30;101764.94;;;7.66;72.14
46690;BME280;32423;45.398;10.874;2023-02-03T11:40:36;101763.31;;;7.75;71.59
46690;BME280;32423;45.398;10.874;2023-02-03T11:43:30;101756.53;;;7.83;71.11
46690;BME280;32423;45.398;10.874;2023-02-03T11:46:25;101754.09;;;7.91;71.74
46690;BME280;32423;45.398;10.874;2023-02-03T11:52:55;101731.31;;;8.18;69.37
46690;BME280;32423;45.398;10.874;2023-02-03T11:59:02;101711.81;;;8.31;70.64
46690;BME280;32423;45.398;10.874;2023-02-03T12:05:57;101705.72;;;8.59;67.77
46690;BME280;32423;45.398;10.874;2023-02-03T12:18:50;101675.34;;;9.11;66.76
46690;BME280;32423;45.398;10.874;2023-02-03T12:21:51;101662.31;;;9.13;66.21
46690;BME280;32423;45.398;10.874;2023-02-03T12:25:01;101652.47;;;9.22;66.66
46690;BME280;32423;45.398;10.874;2023-02-03T12:28:08;101651.53;;;9.37;66.41
46690;BME280;32423;45.398;10.874;2023-02-03T12:31:28;101645.63;;;9.30;66.55
46690;BME280;32423;45.398;10.874;2023-02-03T12:34:37;101637.44;;;9.35;65.93
46690;BME280;32423;45.398;10.874;2023-02-03T12:41:10;101617.50;;;9.50;65.76
46690;BME280;32423;45.398;10.874;2023-02-03T12:44:03;101602.41;;;9.67;65.13
46690;BME280;32423;45.398;10.874;2023-02-03T12:47:08;101600.53;;;9.63;64.83
46690;BME280;32423;45.398;10.874;2023-02-03T12:50:17;101604.56;;;9.65;65.08
46690;BME280;32423;45.398;10.874;2023-02-03T12:53:16;101589.09;;;9.66;64.24
46690;BME280;32423;45.398;10.874;2023-02-03T12:56:14;101588.81;;;9.67;64.67
46690;BME280;32423;45.398;10.874;2023-02-03T12:59:12;101582.41;;;9.58;64.96
46690;BME280;32423;45.398;10.874;2023-02-03T13:02:15;101576.75;;;9.78;64.81
46690;BME280;32423;45.398;10.874;2023-02-03T13:05:16;101579.13;;;9.85;64.17
46690;BME280;32423;45.398;10.874;2023-02-03T13:08:41;101552.69;;;9.91;64.08
46690;BME280;32423;45.398;10.874;2023-02-03T13:15:26;101549.50;;;10.07;63.49
46690;BME280;32423;45.398;10.874;2023-02-03T13:18:27;101539.56;;;9.98;63.54
46690;BME280;32423;45.398;10.874;2023-02-03T13:21:20;101531.72;;;9.96;63.74
46690;BME280;32423;45.398;10.874;2023-02-03T13:24:14;101536.72;;;10.08;63.60
46690;BME280;32423;45.398;10.874;2023-02-03T13:27:20;101530.25;;;10.04;63.56
46690;BME280;32423;45.398;10.874;2023-02-03T13:39:39;101514.88;;;10.37;62.26
46690;BME280;32423;45.398;10.874;2023-02-03T13:42:40;101512.75;;;10.34;62.10
46690;BME280;32423;45.398;10.874;2023-02-03T13:45:38;101519.88;;;10.48;61.74
46690;BME280;32423;45.398;10.874;2023-02-03T13:48:34;101516.94;;;10.45;61.63
46690;BME280;32423;45.398;10.874;2023-02-03T13:51:41;101514.28;;;10.58;61.41
46690;BME280;32423;45.398;10.874;2023-02-03T13:54:43;101509.66;;;10.59;61.24
46690;BME280;32423;45.398;10.874;2023-02-03T13:57:38;101500.81;;;10.67;61.04
46690;BME280;32423;45.398;10.874;2023-02-03T14:03:45;101502.00;;;10.80;60.51
46690;BME280;32423;45.398;10.874;2023-02-03T14:12:36;101487.50;;;10.84;59.92
46690;BME280;32423;45.398;10.874;2023-02-03T14:15:33;101489.03;;;10.90;60.50
46690;BME280;32423;45.398;10.874;2023-02-03T14:18:42;101488.75;;;10.73;61.21
46690;BME280;32423;45.398;10.874;2023-02-03T14:21:44;101477.69;;;10.69;61.62
46690;BME280;32423;45.398;10.874;2023-02-03T14:24:42;101492.16;;;10.65;61.99
46690;BME280;32423;45.398;10.874;2023-02-03T14:27:37;101486.84;;;10.73;62.39
46690;BME280;32423;45.398;10.874;2023-02-03T14:30:29;101500.16;;;10.75;62.49
46690;BME280;32423;45.398;10.874;2023-02-03T14:33:18;101497.69;;;10.60;63.32
46690;BME280;32423;45.398;10.874;2023-02-03T14:36:31;101481.53;;;10.50;63.38
46690;BME280;32423;45.398;10.874;2023-02-03T14:39:34;101487.63;;;10.42;63.91
46690;BME280;32423;45.398;10.874;2023-02-03T14:42:44;101487.56;;;10.28;64.23
46690;BME280;32423;45.398;10.874;2023-02-03T14:54:48;101493.25;;;10.08;64.95
46690;BME280;32423;45.398;10.874;2023-02-03T14:57:48;101485.50;;;9.96;65.21
46690;BME280;32423;45.398;10.874;2023-02-03T15:00:41;101481.50;;;9.94;65.40
46690;BME280;32423;45.398;10.874;2023-02-03T15:03:33;101482.78;;;9.77;65.13
46690;BME280;32423;45.398;10.874;2023-02-03T15:09:46;101488.34;;;9.43;66.82
46690;BME280;32423;45.398;10.874;2023-02-03T15:12:42;101494.00;;;9.47;66.93
46690;BME280;32423;45.398;10.874;2023-02-03T15:15:39;101486.56;;;9.34;67.27
46690;BME280;32423;45.398;10.874;2023-02-03T15:18:33;101484.66;;;9.34;67.05
46690;BME280;32423;45.398;10.874;2023-02-03T15:21:29;101494.94;;;9.37;66.90
46690;BME280;32423;45.398;10.874;2023-02-03T15:24:18;101468.44;;;9.29;66.77
46690;BME280;32423;45.398;10.874;2023-02-03T15:27:18;101469.47;;;9.33;66.37
46690;BME280;32423;45.398;10.874;2023-02-03T15:30:17;101482.56;;;9.50;65.63
46690;BME280;32423;45.398;10.874;2023-02-03T15:33:15;101489.28;;;9.34;66.13
46690;BME280;32423;45.398;10.874;2023-02-03T15:36:08;101477.28;;;9.11;67.09
46690;BME280;32423;45.398;10.874;2023-02-03T15:39:05;101461.03;;;8.82;67.87
46690;BME280;32423;45.398;10.874;2023-02-03T15:42:01;101466.03;;;8.94;67.68
46690;BME280;32423;45.398;10.874;2023-02-03T15:44:59;101463.06;;;8.95;67.38
46690;BME280;32423;45.398;10.874;2023-02-03T15:48:00;101445.38;;;9.03;67.11
46690;BME280;32423;45.398;10.874;2023-02-03T15:50:53;101457.97;;;9.18;66.70
46690;BME280;32423;45.398;10.874;2023-02-03T15:53:46;101452.41;;;9.52;65.23
46690;BME280;32423;45.398;10.874;2023-02-03T15:56:43;101462.47;;;9.75;63.93
46690;BME280;32423;45.398;10.874;2023-02-03T15:59:35;101463.25;;;9.75;63.38
46690;BME280;32423;45.398;10.874;2023-02-03T16:02:32;101465.19;;;9.94;62.94
46690;BME280;32423;45.398;10.874;2023-02-03T16:05:24;101466.25;;;10.16;61.83
46690;BME280;32423;45.398;10.874;2023-02-03T16:11:34;101453.84;;;9.20;65.40
46690;BME280;32423;45.398;10.874;2023-02-03T16:14:34;101453.13;;;9.10;65.94
46690;BME280;32423;45.398;10.874;2023-02-03T16:17:31;101450.31;;;8.96;66.27
46690;BME280;32423;45.398;10.874;2023-02-03T16:20:24;101453.19;;;8.76;66.99
46690;BME280;32423;45.398;10.874;2023-02-03T16:23:23;101452.63;;;9.08;65.98
46690;BME280;32423;45.398;10.874;2023-02-03T16:26:16;101444.59;;;9.45;64.17
46690;BME280;32423;45.398;10.874;2023-02-03T16:29:10;101424.34;;;9.37;64.07
46690;BME280;32423;45.398;10.874;2023-02-03T16:32:19;101419.50;;;9.11;64.73
46690;BME280;32423;45.398;10.874;2023-02-03T16:35:28;101419.03;;;8.75;66.18
46690;BME280;32423;45.398;10.874;2023-02-03T16:38:34;101411.50;;;8.72;66.34
46690;BME280;32423;45.398;10.874;2023-02-03T16:41:42;101400.28;;;8.49;67.28
46690;BME280;32423;45.398;10.874;2023-02-03T16:44:51;101409.47;;;8.53;66.72
46690;BME280;32423;45.398;10.874;2023-02-03T16:47:57;101395.81;;;8.35;67.47
46690;BME280;32423;45.398;10.874;2023-02-03T16:51:02;101401.22;;;8.35;67.40
46690;BME280;32423;45.398;10.874;2023-02-03T16:53:55;101404.81;;;8.25;67.18